createdAt,value
2022-08-28T00:00:28.323Z,22.90
2022-08-28T00:02:55.630Z,22.90
2022-08-28T00:05:24.256Z,22.90
2022-08-28T00:07:51.141Z,22.80
2022-08-28T00:10:18.534Z,22.80
2022-08-28T00:12:45.717Z,22.70
2022-08-28T00:15:13.583Z,22.60
2022-08-28T00:17:40.764Z,22.60
2022-08-28T00:20:09.669Z,22.60
2022-08-28T00:22:38.646Z,22.70
2022-08-28T00:25:06.727Z,22.70
2022-08-28T00:27:52.389Z,22.70
2022-08-28T00:30:24.766Z,22.60
2022-08-28T00:32:52.284Z,22.60
2022-08-28T00:35:23.856Z,22.60
2022-08-28T00:37:51.535Z,22.60
2022-08-28T00:40:20.004Z,22.60
2022-08-28T00:42:57.762Z,22.60
2022-08-28T00:45:24.835Z,22.60
2022-08-28T00:47:53.231Z,22.60
2022-08-28T00:50:21.464Z,22.60
2022-08-28T00:52:49.019Z,22.60
2022-08-28T00:55:16.941Z,22.60
2022-08-28T00:57:50.970Z,22.60
2022-08-28T01:00:19.894Z,22.60
2022-08-28T01:02:46.869Z,22.60
2022-08-28T01:05:14.143Z,22.60
2022-08-28T01:07:41.341Z,22.60
2022-08-28T01:10:09.766Z,22.50
2022-08-28T01:12:36.699Z,22.50
2022-08-28T01:15:09.474Z,22.50
2022-08-28T01:17:36.497Z,22.50
2022-08-28T01:20:09.385Z,22.40
2022-08-28T01:22:38.312Z,22.40
2022-08-28T01:25:06.171Z,22.40
2022-08-28T01:27:33.152Z,22.50
2022-08-28T01:30:00.164Z,22.50
2022-08-28T01:32:34.375Z,22.40
2022-08-28T01:35:01.369Z,22.40
2022-08-28T01:37:29.699Z,22.50
2022-08-28T01:39:56.629Z,22.50
2022-08-28T01:42:24.098Z,22.40
2022-08-28T01:44:52.927Z,22.40
2022-08-28T01:47:22.208Z,22.30
2022-08-28T01:49:49.626Z,22.30
2022-08-28T01:52:16.544Z,22.30
2022-08-28T01:54:43.483Z,22.30
2022-08-28T01:57:11.942Z,22.20
2022-08-28T01:59:40.109Z,22.20
2022-08-28T02:02:10.828Z,22.20
2022-08-28T02:04:38.061Z,22.10
2022-08-28T02:07:05.270Z,22.10
2022-08-28T02:09:32.385Z,22.10
2022-08-28T02:11:59.348Z,22.10
2022-08-28T02:14:26.256Z,22.00
2022-08-28T02:16:53.236Z,21.90
2022-08-28T02:19:21.033Z,21.90
2022-08-28T02:21:48.382Z,21.80
2022-08-28T02:24:17.219Z,21.80
2022-08-28T02:26:45.038Z,21.70
2022-08-28T02:29:12.402Z,21.70
2022-08-28T02:31:39.394Z,21.70
2022-08-28T02:34:06.572Z,21.70
2022-08-28T02:36:34.159Z,21.70
2022-08-28T02:39:01.452Z,21.70
2022-08-28T02:41:28.522Z,21.60
2022-08-28T02:43:55.439Z,21.50
2022-08-28T02:46:22.358Z,21.50
2022-08-28T02:48:50.619Z,21.50
2022-08-28T02:51:18.380Z,21.50
2022-08-28T02:53:45.338Z,21.50
2022-08-28T02:56:12.381Z,21.50
2022-08-28T02:58:39.525Z,21.50
2022-08-28T03:01:07.285Z,21.60
2022-08-28T03:03:34.299Z,21.50
2022-08-28T03:06:02.075Z,21.50
2022-08-28T03:08:29.345Z,21.40
2022-08-28T03:10:57.610Z,21.40
2022-08-28T03:13:26.972Z,21.40
2022-08-28T03:15:55.869Z,21.40
2022-08-28T03:18:23.285Z,21.40
2022-08-28T03:20:50.380Z,21.40
2022-08-28T03:23:26.468Z,21.40
2022-08-28T03:25:53.412Z,21.40
2022-08-28T03:28:20.338Z,21.40
2022-08-28T03:30:47.798Z,21.30
2022-08-28T03:33:15.025Z,21.30
2022-08-28T03:35:41.939Z,21.30
2022-08-28T03:38:08.925Z,21.30
2022-08-28T03:40:38.501Z,21.30
2022-08-28T03:43:06.969Z,21.20
2022-08-28T03:45:34.034Z,21.20
2022-08-28T03:48:01.066Z,21.20
2022-08-28T03:50:28.483Z,21.10
2022-08-28T03:52:56.568Z,21.10
2022-08-28T03:55:23.520Z,21.10
2022-08-28T03:57:51.763Z,21.00
2022-08-28T04:00:19.311Z,20.90
2022-08-28T04:02:46.396Z,20.90
2022-08-28T04:05:14.776Z,20.90
2022-08-28T04:07:41.725Z,20.90
2022-08-28T04:10:08.829Z,20.90
2022-08-28T04:12:37.216Z,20.90
2022-08-28T04:15:06.363Z,20.90
2022-08-28T04:17:36.200Z,20.90
2022-08-28T04:20:03.326Z,20.90
2022-08-28T04:22:30.314Z,20.90
2022-08-28T04:24:57.189Z,20.90
2022-08-28T04:27:24.080Z,21.00
2022-08-28T04:29:50.955Z,20.90
2022-08-28T04:32:17.880Z,21.00
2022-08-28T04:34:44.853Z,21.00
2022-08-28T04:37:12.481Z,21.00
2022-08-28T04:39:39.647Z,21.00
2022-08-28T04:42:06.702Z,21.10
2022-08-28T04:44:33.696Z,21.10
2022-08-28T04:47:01.012Z,21.10
2022-08-28T04:49:29.089Z,21.10
2022-08-28T04:54:15.074Z,21.20
2022-08-28T04:56:42.032Z,21.20
2022-08-28T04:59:11.698Z,21.30
2022-08-28T05:01:39.956Z,21.40
2022-08-28T05:04:07.455Z,21.40
2022-08-28T05:06:34.460Z,21.50
2022-08-28T05:09:01.896Z,21.50
2022-08-28T05:11:33.167Z,21.60
2022-08-28T05:14:00.987Z,21.70
2022-08-28T05:16:27.984Z,21.70
2022-08-28T05:18:54.950Z,21.80
2022-08-28T05:21:22.322Z,21.70
2022-08-28T05:23:49.674Z,21.70
2022-08-28T05:26:17.030Z,21.80
2022-08-28T05:28:43.983Z,21.80
2022-08-28T05:31:11.526Z,21.90
2022-08-28T05:33:38.511Z,22.00
2022-08-28T05:36:06.367Z,22.00
2022-08-28T05:38:33.884Z,22.10
2022-08-28T05:41:00.899Z,22.20
2022-08-28T05:43:27.767Z,22.20
2022-08-28T05:46:00.643Z,22.30
2022-08-28T05:48:30.456Z,22.30
2022-08-28T05:51:10.739Z,22.40
2022-08-28T05:53:41.411Z,22.50
2022-08-28T05:56:08.949Z,22.60
2022-08-28T05:58:35.878Z,22.70
2022-08-28T06:01:06.747Z,22.70
2022-08-28T06:03:34.031Z,22.70
2022-08-28T06:06:00.973Z,22.70
2022-08-28T06:08:28.368Z,22.80
2022-08-28T06:10:55.412Z,22.90
2022-08-28T06:13:22.419Z,23.00
2022-08-28T06:15:49.548Z,23.10
2022-08-28T06:18:16.505Z,23.20
2022-08-28T06:20:45.147Z,23.30
2022-08-28T06:23:13.018Z,23.40
2022-08-28T06:25:40.203Z,23.50
2022-08-28T06:28:08.882Z,23.70
2022-08-28T06:30:40.138Z,23.80
2022-08-28T06:33:09.776Z,24.00
2022-08-28T06:35:43.324Z,24.10
2022-08-28T06:38:10.850Z,24.20
2022-08-28T06:40:47.852Z,24.20
2022-08-28T06:43:14.993Z,24.30
2022-08-28T06:45:42.713Z,24.40
2022-08-28T06:48:10.293Z,24.40
2022-08-28T06:50:47.962Z,24.60
2022-08-28T06:53:15.433Z,24.80
2022-08-28T06:55:42.424Z,25.00
2022-08-28T06:58:09.387Z,25.00
2022-08-28T07:00:36.725Z,25.10
2022-08-28T07:03:05.044Z,25.30
2022-08-28T07:05:35.276Z,25.50
2022-08-28T07:08:02.691Z,25.60
2022-08-28T07:10:29.794Z,25.80
2022-08-28T07:12:57.601Z,25.80
2022-08-28T07:15:26.166Z,25.90
2022-08-28T07:17:53.181Z,25.90
2022-08-28T07:20:20.186Z,26.10
2022-08-28T07:22:49.730Z,26.30
2022-08-28T07:25:22.181Z,26.40
2022-08-28T07:27:49.523Z,26.50
2022-08-28T07:30:16.775Z,26.60
2022-08-28T07:32:43.971Z,26.80
2022-08-28T07:35:11.082Z,26.90
2022-08-28T07:37:40.654Z,27.10
2022-08-28T07:40:10.197Z,27.10
2022-08-28T07:42:57.440Z,27.20
2022-08-28T07:45:27.349Z,27.30
2022-08-28T07:47:54.663Z,27.30
2022-08-28T07:50:22.219Z,27.50
2022-08-28T07:52:49.147Z,27.60
2022-08-28T07:55:16.485Z,27.70
2022-08-28T07:57:43.469Z,27.70
2022-08-28T08:00:11.348Z,27.90
2022-08-28T08:02:38.323Z,28.00
2022-08-28T08:05:05.630Z,28.10
2022-08-28T08:07:33.409Z,28.20
2022-08-28T08:10:00.319Z,28.40
2022-08-28T08:12:27.838Z,28.40
2022-08-28T08:14:56.417Z,28.50
2022-08-28T08:17:23.355Z,28.50
2022-08-28T08:19:50.767Z,28.60
2022-08-28T08:22:18.568Z,28.80
2022-08-28T08:24:45.547Z,29.00
2022-08-28T08:27:12.556Z,29.00
2022-08-28T08:29:39.856Z,29.10
2022-08-28T08:32:09.891Z,29.20
2022-08-28T08:34:40.707Z,29.40
2022-08-28T08:37:07.857Z,29.60
2022-08-28T08:39:35.531Z,29.70
2022-08-28T08:42:03.160Z,29.80
2022-08-28T08:44:33.781Z,29.90
2022-08-28T08:47:15.169Z,30.10
2022-08-28T08:49:47.533Z,30.30
2022-08-28T08:52:19.070Z,30.50
2022-08-28T08:54:48.506Z,30.70
2022-08-28T08:57:15.443Z,30.70
2022-08-28T08:59:42.576Z,30.80
2022-08-28T09:02:14.741Z,30.90
2022-08-28T09:04:47.679Z,31.10
2022-08-28T09:07:19.622Z,31.30
2022-08-28T09:09:50.894Z,31.40
2022-08-28T09:12:28.339Z,31.60
2022-08-28T09:14:58.712Z,31.80
2022-08-28T09:17:28.203Z,32.00
2022-08-28T09:19:55.217Z,32.10
2022-08-28T09:22:22.958Z,32.20
2022-08-28T09:24:50.379Z,32.30
2022-08-28T09:27:24.992Z,32.30
2022-08-28T09:29:59.124Z,32.40
2022-08-28T09:32:35.222Z,32.60
2022-08-28T09:35:04.544Z,32.80
2022-08-28T09:37:35.661Z,33.00
2022-08-28T09:40:18.120Z,33.20
2022-08-28T09:43:26.200Z,33.40
2022-08-28T09:45:53.155Z,33.40
2022-08-28T09:48:21.387Z,33.40
2022-08-28T09:50:58.239Z,33.50
2022-08-28T09:53:25.931Z,33.50
2022-08-28T09:55:57.657Z,33.60
2022-08-28T09:58:27.268Z,33.70
2022-08-28T10:01:01.581Z,33.70
2022-08-28T10:03:40.538Z,33.70
2022-08-28T10:06:26.712Z,33.80
2022-08-28T10:08:55.829Z,33.80
2022-08-28T10:11:25.852Z,34.10
2022-08-28T10:14:06.167Z,34.20
2022-08-28T10:16:44.282Z,34.30
2022-08-28T10:19:24.195Z,34.40
2022-08-28T10:21:54.047Z,34.60
2022-08-28T10:24:26.477Z,34.60
2022-08-28T10:26:58.386Z,34.50
2022-08-28T10:29:25.729Z,34.50
2022-08-28T10:31:58.608Z,34.60
2022-08-28T10:34:28.631Z,34.80
2022-08-28T10:37:11.104Z,34.90
2022-08-28T10:39:42.652Z,35.10
2022-08-28T10:42:15.302Z,35.20
2022-08-28T10:44:50.181Z,35.30
2022-08-28T10:47:17.945Z,35.30
2022-08-28T10:49:46.467Z,35.20
2022-08-28T10:52:18.412Z,35.30
2022-08-28T10:55:08.805Z,35.50
2022-08-28T10:57:45.196Z,35.80
2022-08-28T11:00:13.807Z,36.10
2022-08-28T11:03:02.512Z,35.90
2022-08-28T11:05:33.463Z,35.80
2022-08-28T11:08:02.494Z,35.70
2022-08-28T11:10:29.580Z,35.80
2022-08-28T11:12:56.615Z,35.90
2022-08-28T11:15:36.779Z,36.00
2022-08-28T11:18:30.631Z,36.10
2022-08-28T11:21:00.794Z,36.30
2022-08-28T11:23:46.911Z,36.40
2022-08-28T11:26:14.546Z,36.40
2022-08-28T11:28:42.913Z,36.50
2022-08-28T11:31:29.221Z,36.40
2022-08-28T11:33:59.404Z,36.40
2022-08-28T11:36:28.411Z,36.40
2022-08-28T11:38:55.681Z,36.30
2022-08-28T11:41:29.758Z,36.30
2022-08-28T11:44:29.395Z,36.40
2022-08-28T11:46:59.075Z,36.60
2022-08-28T11:49:29.406Z,36.70
2022-08-28T11:51:59.279Z,36.70
2022-08-28T11:54:45.175Z,36.40
2022-08-28T11:57:17.545Z,36.40
2022-08-28T11:59:50.597Z,36.60
2022-08-28T12:02:37.517Z,36.80
2022-08-28T12:05:09.907Z,36.90
2022-08-28T12:07:38.333Z,36.90
2022-08-28T12:10:37.451Z,36.90
2022-08-28T12:13:07.723Z,36.90
2022-08-28T12:15:35.797Z,37.00
2022-08-28T12:18:12.102Z,37.00
2022-08-28T12:20:40.565Z,36.90
2022-08-28T12:23:26.279Z,37.00
2022-08-28T12:26:00.272Z,37.00
2022-08-28T12:28:32.050Z,37.10
2022-08-28T12:31:02.017Z,37.00
2022-08-28T12:33:32.176Z,36.90
2022-08-28T12:36:02.744Z,36.80
2022-08-28T12:38:30.625Z,36.90
2022-08-28T12:41:00.085Z,37.00
2022-08-28T12:43:31.304Z,37.10
2022-08-28T12:46:00.219Z,37.20
2022-08-28T12:48:27.711Z,37.30
2022-08-28T12:51:19.994Z,37.40
2022-08-28T12:53:50.785Z,37.40
2022-08-28T12:56:20.316Z,37.40
2022-08-28T12:58:47.713Z,37.40
2022-08-28T13:01:15.728Z,37.30
2022-08-28T13:03:46.821Z,37.40
2022-08-28T13:06:13.811Z,37.30
2022-08-28T13:08:40.920Z,37.40
2022-08-28T13:11:10.263Z,37.40
2022-08-28T13:13:45.471Z,37.40
2022-08-28T13:16:16.901Z,37.20
2022-08-28T13:18:55.342Z,37.20
2022-08-28T13:21:33.884Z,37.30
2022-08-28T13:24:41.974Z,37.30
2022-08-28T13:27:21.554Z,37.30
2022-08-28T13:29:57.267Z,37.30
2022-08-28T13:32:28.886Z,37.40
2022-08-28T13:35:17.739Z,37.40
2022-08-28T13:37:51.387Z,37.50
2022-08-28T13:40:53.414Z,37.50
2022-08-28T13:43:11.146Z,37.50
2022-08-28T13:45:42.905Z,37.30
2022-08-28T13:48:11.772Z,37.30
2022-08-28T13:50:39.510Z,37.20
2022-08-28T13:53:06.621Z,37.20
2022-08-28T13:55:34.048Z,37.10
2022-08-28T13:58:01.463Z,37.00
2022-08-28T14:00:28.973Z,37.00
2022-08-28T14:03:14.855Z,37.00
2022-08-28T14:05:43.479Z,37.00
2022-08-28T14:08:10.474Z,37.10
2022-08-28T14:10:37.488Z,37.00
2022-08-28T14:13:04.799Z,37.00
2022-08-28T14:15:31.744Z,37.00
2022-08-28T14:17:58.904Z,37.00
2022-08-28T14:20:25.911Z,36.90
2022-08-28T14:22:53.764Z,37.00
2022-08-28T14:25:24.746Z,37.10
2022-08-28T14:27:54.496Z,37.10
2022-08-28T14:30:21.677Z,37.00
2022-08-28T14:32:48.618Z,37.00
2022-08-28T14:35:18.988Z,36.80
2022-08-28T14:37:49.898Z,36.70
2022-08-28T14:40:27.681Z,36.70
2022-08-28T14:42:54.765Z,36.70
2022-08-28T14:45:21.731Z,36.50
2022-08-28T14:47:49.006Z,36.40
2022-08-28T14:50:24.778Z,36.30
2022-08-28T14:52:55.066Z,36.30
2022-08-28T14:55:23.722Z,36.30
2022-08-28T14:57:51.433Z,36.30
2022-08-28T15:00:21.198Z,36.30
2022-08-28T15:02:48.229Z,36.30
2022-08-28T15:05:20.333Z,36.30
2022-08-28T15:07:47.481Z,36.30
2022-08-28T15:10:14.516Z,36.30
2022-08-28T15:12:42.608Z,36.20
2022-08-28T15:15:09.872Z,36.20
2022-08-28T15:17:36.789Z,36.10
2022-08-28T15:20:06.913Z,36.00
2022-08-28T15:22:34.716Z,36.00
2022-08-28T15:25:01.787Z,35.90
2022-08-28T15:27:28.780Z,35.80
2022-08-28T15:29:55.886Z,35.70
2022-08-28T15:32:23.079Z,35.60
2022-08-28T15:34:50.053Z,35.50
2022-08-28T15:37:19.667Z,35.30
2022-08-28T15:40:05.325Z,35.30
2022-08-28T15:42:33.151Z,35.20
2022-08-28T15:45:00.320Z,35.10
2022-08-28T15:47:27.794Z,35.00
2022-08-28T15:49:55.909Z,34.90
2022-08-28T15:52:25.391Z,34.80
2022-08-28T15:54:52.990Z,34.60
2022-08-28T15:57:20.074Z,34.50
2022-08-28T15:59:49.751Z,34.30
2022-08-28T16:02:21.442Z,34.20
2022-08-28T16:04:48.765Z,34.10
2022-08-28T16:07:16.105Z,33.90
2022-08-28T16:09:47.976Z,33.90
2022-08-28T16:12:15.243Z,33.70
2022-08-28T16:14:42.190Z,33.60
2022-08-28T16:17:10.507Z,33.60
2022-08-28T16:19:41.263Z,33.50
2022-08-28T16:22:08.844Z,33.30
2022-08-28T16:24:35.841Z,33.20
2022-08-28T16:27:02.947Z,33.10
2022-08-28T16:29:29.872Z,32.90
2022-08-28T16:31:56.988Z,32.80
2022-08-28T16:34:27.088Z,32.70
2022-08-28T16:36:57.460Z,32.60
2022-08-28T16:39:27.072Z,32.50
2022-08-28T16:41:54.486Z,32.40
2022-08-28T16:44:22.245Z,32.30
2022-08-28T16:46:49.391Z,32.10
2022-08-28T16:49:16.440Z,32.10
2022-08-28T16:51:43.587Z,32.10
2022-08-28T16:54:16.569Z,32.10
2022-08-28T16:56:44.062Z,32.10
2022-08-28T16:59:16.750Z,31.90
2022-08-28T17:01:43.755Z,31.90
2022-08-28T17:04:12.477Z,31.90
2022-08-28T17:06:43.872Z,31.90
2022-08-28T17:09:10.963Z,31.80
2022-08-28T17:11:37.829Z,31.70
2022-08-28T17:14:05.648Z,31.70
2022-08-28T17:16:35.603Z,31.60
2022-08-28T17:19:02.907Z,31.50
2022-08-28T17:21:48.709Z,31.40
2022-08-28T17:24:42.359Z,31.30
2022-08-28T17:27:12.341Z,31.20
2022-08-28T17:29:39.650Z,31.10
2022-08-28T17:32:08.649Z,31.10
2022-08-28T17:34:36.936Z,31.00
2022-08-28T17:37:04.467Z,31.00
2022-08-28T17:39:32.286Z,31.00
2022-08-28T17:42:00.741Z,30.90
2022-08-28T17:44:28.206Z,30.90
2022-08-28T17:46:55.616Z,30.90
2022-08-28T17:49:23.337Z,30.80
2022-08-28T17:51:51.645Z,30.70
2022-08-28T17:54:21.877Z,30.70
2022-08-28T17:56:50.096Z,30.70
2022-08-28T17:59:20.295Z,30.70
2022-08-28T18:01:55.180Z,30.60
2022-08-28T18:04:24.464Z,30.60
2022-08-28T18:06:55.125Z,30.50
2022-08-28T18:09:22.973Z,30.50
2022-08-28T18:11:50.226Z,30.40
2022-08-28T18:14:28.231Z,30.40
2022-08-28T18:16:55.514Z,30.40
2022-08-28T18:19:24.816Z,30.30
2022-08-28T18:21:52.028Z,30.20
2022-08-28T18:24:19.325Z,30.10
2022-08-28T18:26:47.945Z,30.00
2022-08-28T18:29:15.767Z,29.90
2022-08-28T18:31:44.165Z,29.80
2022-08-28T18:34:11.756Z,29.80
2022-08-28T18:36:41.983Z,29.70
2022-08-28T18:39:09.496Z,29.70
2022-08-28T18:41:43.898Z,29.60
2022-08-28T18:44:21.171Z,29.60
2022-08-28T18:46:52.204Z,29.40
2022-08-28T18:49:19.329Z,29.40
2022-08-28T18:51:46.474Z,29.30
2022-08-28T18:54:14.442Z,29.20
2022-08-28T18:56:44.447Z,29.20
2022-08-28T18:59:12.075Z,29.10
2022-08-28T19:01:39.390Z,29.00
2022-08-28T19:04:06.586Z,29.00
2022-08-28T19:06:36.840Z,29.00
2022-08-28T19:09:05.947Z,28.90
2022-08-28T19:11:33.114Z,28.90
2022-08-28T19:14:03.772Z,28.80
2022-08-28T19:16:32.690Z,28.70
2022-08-28T19:19:00.405Z,28.80
2022-08-28T19:21:28.416Z,28.60
2022-08-28T19:23:56.483Z,28.60
2022-08-28T19:26:27.093Z,28.60
2022-08-28T19:28:54.198Z,28.50
2022-08-28T19:31:21.445Z,28.50
2022-08-28T19:33:48.657Z,28.40
2022-08-28T19:36:18.922Z,28.40
2022-08-28T19:38:46.066Z,28.30
2022-08-28T19:41:13.227Z,28.30
2022-08-28T19:43:43.311Z,28.20
2022-08-28T19:46:18.474Z,28.20
2022-08-28T19:48:51.044Z,28.20
2022-08-28T19:51:22.689Z,28.20
2022-08-28T19:53:57.891Z,28.20
2022-08-28T19:56:30.008Z,28.20
2022-08-28T19:58:58.627Z,28.20
2022-08-28T20:01:29.850Z,28.10
2022-08-28T20:03:57.477Z,28.00
2022-08-28T20:06:25.912Z,28.00
2022-08-28T20:08:52.967Z,28.00
2022-08-28T20:11:30.424Z,28.00
2022-08-28T20:13:59.302Z,28.00
2022-08-28T20:16:27.502Z,27.90
2022-08-28T20:18:55.258Z,27.90
2022-08-28T20:21:32.968Z,27.90
2022-08-28T20:24:12.126Z,27.80
2022-08-28T20:26:39.334Z,27.80
2022-08-28T20:29:06.967Z,27.70
2022-08-28T20:31:34.385Z,27.70
2022-08-28T20:34:01.475Z,27.70
2022-08-28T20:36:29.644Z,27.50
2022-08-28T20:38:57.161Z,27.50
2022-08-28T20:41:24.115Z,27.50
2022-08-28T20:43:51.156Z,27.40
2022-08-28T20:46:20.544Z,27.40
2022-08-28T20:48:49.422Z,27.40
2022-08-28T20:51:16.643Z,27.20
2022-08-28T20:53:44.892Z,27.20
2022-08-28T20:56:11.905Z,27.10
2022-08-28T20:58:39.101Z,27.10
2022-08-28T21:01:07.355Z,27.10
2022-08-28T21:03:34.482Z,27.20
2022-08-28T21:06:01.707Z,27.10
2022-08-28T21:08:28.749Z,27.10
2022-08-28T21:10:57.182Z,27.10
2022-08-28T21:13:26.114Z,27.20
2022-08-28T21:15:53.095Z,27.20
2022-08-28T21:18:20.311Z,27.10
2022-08-28T21:20:47.382Z,27.10
2022-08-28T21:23:14.516Z,27.00
2022-08-28T21:25:41.562Z,27.00
2022-08-28T21:28:08.650Z,27.00
2022-08-28T21:30:35.831Z,27.00
2022-08-28T21:33:02.894Z,27.00
2022-08-28T21:35:30.043Z,26.90
2022-08-28T21:37:58.306Z,26.80
2022-08-28T21:40:25.285Z,26.80
2022-08-28T21:42:52.279Z,26.70
2022-08-28T21:45:19.273Z,26.70
2022-08-28T21:47:46.331Z,26.50
2022-08-28T21:50:13.393Z,26.50
2022-08-28T21:52:40.479Z,26.50
2022-08-28T21:55:08.447Z,26.30
2022-08-28T21:57:35.733Z,26.10
2022-08-28T22:00:03.406Z,26.10
2022-08-28T22:02:30.500Z,26.20
2022-08-28T22:04:57.894Z,26.20
2022-08-28T22:07:25.371Z,26.20
2022-08-28T22:09:52.366Z,26.10
2022-08-28T22:12:19.339Z,26.10
2022-08-28T22:14:46.383Z,26.10
2022-08-28T22:17:15.879Z,26.10
2022-08-28T22:19:43.070Z,26.10
2022-08-28T22:22:32.337Z,26.00
2022-08-28T22:25:00.086Z,25.90
2022-08-28T22:27:27.228Z,25.90
2022-08-28T22:29:55.104Z,25.90
2022-08-28T22:32:25.860Z,25.80
2022-08-28T22:34:53.016Z,25.80
2022-08-28T22:37:20.247Z,25.70
2022-08-28T22:39:47.365Z,25.70
2022-08-28T22:42:14.528Z,25.70
2022-08-28T22:44:41.803Z,25.60
2022-08-28T22:47:08.936Z,25.50
2022-08-28T22:49:39.812Z,25.40
2022-08-28T22:52:07.171Z,25.40
2022-08-28T22:54:34.353Z,25.40
2022-08-28T22:57:01.399Z,25.40
2022-08-28T22:59:28.672Z,25.40
2022-08-28T23:01:55.827Z,25.40
2022-08-28T23:04:23.401Z,25.40
2022-08-28T23:06:50.515Z,25.40
2022-08-28T23:09:17.494Z,25.30
2022-08-28T23:11:44.479Z,25.30
2022-08-28T23:14:11.391Z,25.30
2022-08-28T23:16:38.366Z,25.30
2022-08-28T23:19:08.755Z,25.30
2022-08-28T23:21:35.916Z,25.30
2022-08-28T23:24:07.892Z,25.30
2022-08-28T23:26:34.853Z,25.30
2022-08-28T23:29:01.769Z,25.30
2022-08-28T23:31:28.943Z,25.30
2022-08-28T23:33:56.192Z,25.20
2022-08-28T23:36:24.152Z,25.10
2022-08-28T23:38:51.382Z,25.00
2022-08-28T23:41:19.077Z,25.00
2022-08-28T23:43:47.217Z,25.00
2022-08-28T23:46:18.169Z,24.90
2022-08-28T23:48:45.398Z,24.90
2022-08-28T23:51:17.130Z,24.90
2022-08-28T23:53:44.210Z,24.90
2022-08-28T23:56:11.568Z,24.90
2022-08-28T23:58:39.867Z,24.90
